BTY91CM LEVT-LPPT
Flight info
| Callsign | BTY91CM |
|---|---|
| Flight time | 1h 22m |
| Altitude | 35000 |
| Route | NEA DCT ARDID DCT INBOM |
| Aircraft | B738/M-SDE2E3FGHIRWXY/LB1 |
Departure
| Time | 2026-05-07 19:09 |
|---|---|
| Airport | Vitoria Airport (LEVT) |
Arrival
| Time | 2026-05-07 20:32 |
|---|---|
| Airport | Lisbon Humberto Delgado Airport (LPPT) |
| Time | Latitude | Longitude | Altitude | Speed | Heading |
|---|---|---|---|---|---|
| 2026-05-07 18:30 | 42.88351 | -2.73026 | 1683 ft | 0 kts | 351° |
| 2026-05-07 18:59 | 42.88352 | -2.73026 | 1676 ft | 0 kts | 2° |
| 2026-05-07 19:00 | 42.88353 | -2.73024 | 1676 ft | 0 kts | 16° |
| 2026-05-07 19:01 | 42.88354 | -2.73019 | 1676 ft | 1 kts | 62° |
| 2026-05-07 19:01 | 42.88350 | -2.73007 | 1686 ft | 3 kts | 116° |
| 2026-05-07 19:01 | 42.88322 | -2.72984 | 1684 ft | 7 kts | 160° |
| 2026-05-07 19:01 | 42.88272 | -2.72939 | 1676 ft | 11 kts | 129° |
| 2026-05-07 19:02 | 42.88228 | -2.72836 | 1678 ft | 15 kts | 94° |
| 2026-05-07 19:02 | 42.88305 | -2.72728 | 1679 ft | 18 kts | 35° |
| 2026-05-07 19:02 | 42.88419 | -2.72615 | 1676 ft | 22 kts | 36° |
| 2026-05-07 19:02 | 42.88508 | -2.72527 | 1676 ft | 12 kts | 36° |
| 2026-05-07 19:03 | 42.88573 | -2.72463 | 1679 ft | 11 kts | 36° |
| 2026-05-07 19:03 | 42.88635 | -2.72401 | 1680 ft | 11 kts | 36° |
| 2026-05-07 19:03 | 42.88697 | -2.72341 | 1681 ft | 11 kts | 34° |
| 2026-05-07 19:03 | 42.88757 | -2.72283 | 1676 ft | 10 kts | 34° |
| 2026-05-07 19:04 | 42.88816 | -2.72228 | 1680 ft | 10 kts | 35° |
| 2026-05-07 19:04 | 42.88879 | -2.72168 | 1683 ft | 12 kts | 35° |
| 2026-05-07 19:04 | 42.88949 | -2.72097 | 1676 ft | 13 kts | 39° |
| 2026-05-07 19:04 | 42.89023 | -2.72020 | 1677 ft | 13 kts | 36° |
| 2026-05-07 19:05 | 42.89098 | -2.71945 | 1679 ft | 14 kts | 36° |
| 2026-05-07 19:05 | 42.89179 | -2.71867 | 1685 ft | 15 kts | 35° |
| 2026-05-07 19:05 | 42.89265 | -2.71785 | 1683 ft | 16 kts | 35° |
| 2026-05-07 19:05 | 42.89358 | -2.71694 | 1684 ft | 17 kts | 37° |
| 2026-05-07 19:06 | 42.89455 | -2.71596 | 1686 ft | 18 kts | 36° |
| 2026-05-07 19:06 | 42.89628 | -2.71377 | 1683 ft | 17 kts | 99° |
| 2026-05-07 19:06 | 42.89562 | -2.71251 | 1683 ft | 16 kts | 156° |
| 2026-05-07 19:07 | 42.89483 | -2.71269 | 1678 ft | 0 kts | 217° |
| 2026-05-07 19:09 | 42.89289 | -2.71458 | 1680 ft | 70 kts | 215° |
| 2026-05-07 19:09 | 42.88720 | -2.72015 | 1680 ft | 130 kts | 216° |
| 2026-05-07 19:09 | 42.87845 | -2.72854 | 1717 ft | 174 kts | 214° |
| 2026-05-07 19:09 | 42.86847 | -2.73794 | 2478 ft | 171 kts | 214° |
| 2026-05-07 19:10 | 42.85844 | -2.74740 | 3220 ft | 180 kts | 213° |
| 2026-05-07 19:10 | 42.84796 | -2.75726 | 3681 ft | 197 kts | 213° |
| 2026-05-07 19:10 | 42.83614 | -2.76835 | 3972 ft | 213 kts | 213° |
| 2026-05-07 19:10 | 42.82378 | -2.77994 | 4495 ft | 217 kts | 213° |
| 2026-05-07 19:11 | 42.81131 | -2.79161 | 5112 ft | 218 kts | 213° |
| 2026-05-07 19:11 | 42.79874 | -2.80334 | 5681 ft | 220 kts | 213° |
| 2026-05-07 19:11 | 42.78600 | -2.81522 | 6231 ft | 224 kts | 213° |
| 2026-05-07 19:11 | 42.77309 | -2.82722 | 6799 ft | 226 kts | 213° |
| 2026-05-07 19:12 | 42.76008 | -2.83931 | 7377 ft | 227 kts | 213° |
| 2026-05-07 19:12 | 42.74695 | -2.85150 | 7927 ft | 230 kts | 213° |
| 2026-05-07 19:12 | 42.73393 | -2.86369 | 8476 ft | 231 kts | 216° |
| 2026-05-07 19:12 | 42.72281 | -2.87961 | 9031 ft | 234 kts | 232° |
| 2026-05-07 19:13 | 42.71307 | -2.89750 | 9594 ft | 236 kts | 232° |
| 2026-05-07 19:13 | 42.70326 | -2.91556 | 10135 ft | 238 kts | 232° |
| 2026-05-07 19:13 | 42.69338 | -2.93369 | 10642 ft | 240 kts | 232° |
| 2026-05-07 19:13 | 42.68339 | -2.95194 | 11180 ft | 241 kts | 232° |
| 2026-05-07 19:14 | 42.67331 | -2.97028 | 11696 ft | 243 kts | 232° |
| 2026-05-07 19:14 | 42.66313 | -2.98873 | 12246 ft | 245 kts | 232° |
| 2026-05-07 19:14 | 42.65287 | -3.00727 | 12796 ft | 246 kts | 232° |
| 2026-05-07 19:14 | 42.64253 | -3.02591 | 13362 ft | 248 kts | 232° |
| 2026-05-07 19:15 | 42.63224 | -3.04443 | 13890 ft | 250 kts | 232° |
| 2026-05-07 19:15 | 42.62172 | -3.06334 | 14433 ft | 250 kts | 232° |
| 2026-05-07 19:15 | 42.61121 | -3.08220 | 14991 ft | 251 kts | 232° |
| 2026-05-07 19:15 | 42.60064 | -3.10115 | 15515 ft | 253 kts | 232° |
| 2026-05-07 19:16 | 42.58998 | -3.12025 | 16034 ft | 255 kts | 232° |
| 2026-05-07 19:16 | 42.57925 | -3.13946 | 16568 ft | 256 kts | 233° |
| 2026-05-07 19:16 | 42.56844 | -3.15878 | 17093 ft | 258 kts | 233° |
| 2026-05-07 19:16 | 42.55757 | -3.17819 | 17618 ft | 259 kts | 233° |
| 2026-05-07 19:17 | 42.54679 | -3.19743 | 18127 ft | 261 kts | 233° |
| 2026-05-07 19:17 | 42.53577 | -3.21709 | 18590 ft | 263 kts | 233° |
| 2026-05-07 19:17 | 42.52469 | -3.23684 | 19040 ft | 264 kts | 233° |
| 2026-05-07 19:17 | 42.51354 | -3.25669 | 19482 ft | 266 kts | 233° |
| 2026-05-07 19:18 | 42.50232 | -3.27667 | 19914 ft | 267 kts | 233° |
| 2026-05-07 19:18 | 42.49104 | -3.29674 | 20356 ft | 269 kts | 233° |
| 2026-05-07 19:18 | 42.47968 | -3.31692 | 20788 ft | 270 kts | 233° |
| 2026-05-07 19:18 | 42.46825 | -3.33723 | 21215 ft | 272 kts | 233° |
| 2026-05-07 19:19 | 42.45674 | -3.35765 | 21633 ft | 274 kts | 233° |
| 2026-05-07 19:19 | 42.44533 | -3.37789 | 22050 ft | 275 kts | 233° |
| 2026-05-07 19:19 | 42.43369 | -3.39853 | 22454 ft | 277 kts | 233° |
| 2026-05-07 19:19 | 42.42197 | -3.41928 | 22875 ft | 278 kts | 233° |
| 2026-05-07 19:20 | 42.41019 | -3.44014 | 23261 ft | 281 kts | 233° |
| 2026-05-07 19:20 | 42.39823 | -3.46130 | 23564 ft | 285 kts | 233° |
| 2026-05-07 19:20 | 42.38616 | -3.48263 | 23912 ft | 285 kts | 234° |
| 2026-05-07 19:20 | 42.37409 | -3.50395 | 24258 ft | 286 kts | 234° |
| 2026-05-07 19:21 | 42.36198 | -3.52533 | 24579 ft | 287 kts | 234° |
| 2026-05-07 19:21 | 42.34970 | -3.54699 | 24819 ft | 294 kts | 235° |
| 2026-05-07 19:21 | 42.33732 | -3.56884 | 25203 ft | 297 kts | 235° |
| 2026-05-07 19:21 | 42.32478 | -3.59092 | 25737 ft | 296 kts | 236° |
| 2026-05-07 19:22 | 42.31212 | -3.61320 | 25978 ft | 306 kts | 236° |
| 2026-05-07 19:22 | 42.29888 | -3.63655 | 26079 ft | 319 kts | 236° |
| 2026-05-07 19:22 | 42.28510 | -3.66082 | 26205 ft | 332 kts | 236° |
| 2026-05-07 19:22 | 42.27079 | -3.68596 | 26400 ft | 342 kts | 236° |
| 2026-05-07 19:23 | 42.25611 | -3.71171 | 26610 ft | 352 kts | 236° |
| 2026-05-07 19:23 | 42.24091 | -3.73838 | 26704 ft | 365 kts | 236° |
| 2026-05-07 19:23 | 42.22516 | -3.76597 | 26806 ft | 376 kts | 236° |
| 2026-05-07 19:23 | 42.20921 | -3.79387 | 26981 ft | 385 kts | 236° |
| 2026-05-07 19:24 | 42.19270 | -3.82270 | 27258 ft | 391 kts | 236° |
| 2026-05-07 19:24 | 42.17599 | -3.85182 | 27666 ft | 393 kts | 237° |
| 2026-05-07 19:24 | 42.15932 | -3.88085 | 28264 ft | 390 kts | 237° |
| 2026-05-07 19:24 | 42.14279 | -3.90960 | 28921 ft | 386 kts | 237° |
| 2026-05-07 19:25 | 42.12643 | -3.93806 | 29484 ft | 383 kts | 238° |
| 2026-05-07 19:25 | 42.11016 | -3.96635 | 30052 ft | 381 kts | 239° |
| 2026-05-07 19:25 | 42.07718 | -4.02381 | 30205 ft | 399 kts | 238° |
| 2026-05-07 19:26 | 42.04248 | -4.08403 | 30346 ft | 415 kts | 238° |
| 2026-05-07 19:26 | 42.01051 | -4.14911 | 30607 ft | 418 kts | 248° |
| 2026-05-07 19:27 | 41.99743 | -4.18392 | 30954 ft | 416 kts | 249° |
| 2026-05-07 19:27 | 41.98479 | -4.21858 | 31448 ft | 411 kts | 249° |
| 2026-05-07 19:27 | 41.97228 | -4.25286 | 31985 ft | 406 kts | 249° |
| 2026-05-07 19:27 | 41.95978 | -4.28672 | 32444 ft | 403 kts | 249° |
| 2026-05-07 19:28 | 41.94743 | -4.31983 | 32821 ft | 401 kts | 249° |
| 2026-05-07 19:28 | 41.93485 | -4.35319 | 33183 ft | 400 kts | 249° |
| 2026-05-07 19:28 | 41.92226 | -4.38631 | 33614 ft | 397 kts | 249° |
| 2026-05-07 19:28 | 41.90972 | -4.41914 | 34051 ft | 393 kts | 249° |
| 2026-05-07 19:29 | 41.89722 | -4.45179 | 34281 ft | 393 kts | 249° |
| 2026-05-07 19:29 | 41.88472 | -4.48440 | 34528 ft | 394 kts | 249° |
| 2026-05-07 19:29 | 41.87215 | -4.51716 | 34702 ft | 396 kts | 249° |
| 2026-05-07 19:29 | 41.85953 | -4.55001 | 34889 ft | 397 kts | 249° |
| 2026-05-07 19:30 | 41.83405 | -4.61620 | 34921 ft | 399 kts | 248° |
| 2026-05-07 19:30 | 41.80881 | -4.68147 | 34913 ft | 393 kts | 248° |
| 2026-05-07 19:31 | 41.78373 | -4.74624 | 34934 ft | 391 kts | 248° |
| 2026-05-07 19:31 | 41.75866 | -4.81091 | 34938 ft | 391 kts | 248° |
| 2026-05-07 19:32 | 41.73356 | -4.87552 | 34939 ft | 392 kts | 248° |
| 2026-05-07 19:32 | 41.70824 | -4.94062 | 34950 ft | 402 kts | 248° |
| 2026-05-07 19:33 | 41.68214 | -5.00756 | 34950 ft | 410 kts | 247° |
| 2026-05-07 19:33 | 41.65548 | -5.07568 | 34920 ft | 415 kts | 247° |
| 2026-05-07 19:34 | 41.62862 | -5.14406 | 34925 ft | 416 kts | 247° |
| 2026-05-07 19:34 | 41.60186 | -5.21209 | 34916 ft | 417 kts | 247° |
| 2026-05-07 19:35 | 41.57486 | -5.28057 | 34908 ft | 416 kts | 247° |
| 2026-05-07 19:35 | 41.54785 | -5.34893 | 34884 ft | 416 kts | 246° |
| 2026-05-07 19:36 | 41.52082 | -5.41720 | 34906 ft | 416 kts | 246° |
| 2026-05-07 19:36 | 41.49394 | -5.48494 | 34903 ft | 416 kts | 246° |
| 2026-05-07 19:37 | 41.46685 | -5.55306 | 34902 ft | 416 kts | 246° |
| 2026-05-07 19:37 | 41.43971 | -5.62112 | 34904 ft | 416 kts | 246° |
| 2026-05-07 19:38 | 41.41253 | -5.68914 | 34885 ft | 416 kts | 246° |
| 2026-05-07 19:38 | 41.38535 | -5.75701 | 34891 ft | 415 kts | 245° |
| 2026-05-07 19:39 | 41.35833 | -5.82431 | 34890 ft | 415 kts | 245° |
| 2026-05-07 19:39 | 41.33110 | -5.89197 | 34894 ft | 415 kts | 245° |
| 2026-05-07 19:40 | 41.30383 | -5.95962 | 34891 ft | 415 kts | 245° |
| 2026-05-07 19:40 | 41.27653 | -6.02716 | 34891 ft | 415 kts | 245° |
| 2026-05-07 19:41 | 41.24935 | -6.09424 | 34878 ft | 415 kts | 245° |
| 2026-05-07 19:41 | 41.22199 | -6.16166 | 34887 ft | 414 kts | 244° |
| 2026-05-07 19:42 | 41.19461 | -6.22898 | 34888 ft | 414 kts | 244° |
| 2026-05-07 19:42 | 41.16626 | -6.29551 | 34870 ft | 416 kts | 238° |
| 2026-05-07 19:43 | 41.13196 | -6.35686 | 34886 ft | 417 kts | 236° |
| 2026-05-07 19:43 | 41.09684 | -6.41809 | 34877 ft | 417 kts | 236° |
| 2026-05-07 19:44 | 41.06188 | -6.47945 | 34882 ft | 417 kts | 236° |
| 2026-05-07 19:44 | 41.02709 | -6.54083 | 34881 ft | 417 kts | 236° |
| 2026-05-07 19:45 | 40.99257 | -6.60178 | 34883 ft | 416 kts | 236° |
| 2026-05-07 19:45 | 40.95782 | -6.66303 | 34880 ft | 416 kts | 236° |
| 2026-05-07 19:46 | 40.92313 | -6.72405 | 34873 ft | 416 kts | 236° |
| 2026-05-07 19:46 | 40.88833 | -6.78514 | 34885 ft | 416 kts | 236° |
| 2026-05-07 19:47 | 40.85376 | -6.84573 | 34884 ft | 416 kts | 235° |
| 2026-05-07 19:47 | 40.81897 | -6.90654 | 34889 ft | 415 kts | 235° |
| 2026-05-07 19:48 | 40.78417 | -6.96727 | 34892 ft | 414 kts | 235° |
| 2026-05-07 19:48 | 40.74941 | -7.02783 | 34889 ft | 414 kts | 235° |
| 2026-05-07 19:49 | 40.71463 | -7.08828 | 34898 ft | 414 kts | 235° |
| 2026-05-07 19:49 | 40.68007 | -7.14824 | 34882 ft | 413 kts | 236° |
| 2026-05-07 19:50 | 40.64530 | -7.20844 | 34887 ft | 413 kts | 236° |
| 2026-05-07 19:50 | 40.61050 | -7.26860 | 34896 ft | 413 kts | 235° |
| 2026-05-07 19:51 | 40.57565 | -7.32870 | 34897 ft | 413 kts | 234° |
| 2026-05-07 19:51 | 40.54101 | -7.38834 | 34909 ft | 413 kts | 234° |
| 2026-05-07 19:52 | 40.50612 | -7.44830 | 34910 ft | 413 kts | 234° |
| 2026-05-07 19:52 | 40.47119 | -7.50820 | 34906 ft | 413 kts | 234° |
| 2026-05-07 19:53 | 40.43624 | -7.56801 | 34915 ft | 412 kts | 234° |
| 2026-05-07 19:53 | 40.40151 | -7.62735 | 34931 ft | 413 kts | 234° |
| 2026-05-07 19:54 | 40.36647 | -7.68711 | 34925 ft | 414 kts | 234° |
| 2026-05-07 19:54 | 40.33132 | -7.74693 | 34916 ft | 414 kts | 234° |
| 2026-05-07 19:55 | 40.29612 | -7.80672 | 34918 ft | 414 kts | 234° |
| 2026-05-07 19:55 | 40.26168 | -7.86508 | 34913 ft | 396 kts | 234° |
| 2026-05-07 19:56 | 40.24512 | -7.89308 | 34855 ft | 383 kts | 234° |
| 2026-05-07 19:56 | 40.22897 | -7.92038 | 34584 ft | 374 kts | 234° |
| 2026-05-07 19:56 | 40.21316 | -7.94711 | 34200 ft | 371 kts | 234° |
| 2026-05-07 19:56 | 40.19747 | -7.97362 | 33840 ft | 367 kts | 234° |
| 2026-05-07 19:57 | 40.18194 | -7.99985 | 33402 ft | 364 kts | 234° |
| 2026-05-07 19:57 | 40.16652 | -8.02585 | 33032 ft | 360 kts | 234° |
| 2026-05-07 19:57 | 40.15125 | -8.05159 | 32637 ft | 357 kts | 234° |
| 2026-05-07 19:57 | 40.13609 | -8.07711 | 32256 ft | 354 kts | 233° |
| 2026-05-07 19:58 | 40.12104 | -8.10242 | 31874 ft | 351 kts | 233° |
| 2026-05-07 19:58 | 40.10631 | -8.12718 | 31505 ft | 348 kts | 233° |
| 2026-05-07 19:58 | 40.09151 | -8.15205 | 31144 ft | 345 kts | 233° |
| 2026-05-07 19:58 | 40.07681 | -8.17673 | 30790 ft | 343 kts | 233° |
| 2026-05-07 19:59 | 40.06218 | -8.20127 | 30419 ft | 342 kts | 233° |
| 2026-05-07 19:59 | 40.04763 | -8.22565 | 30070 ft | 340 kts | 233° |
| 2026-05-07 19:59 | 40.03309 | -8.24999 | 29664 ft | 341 kts | 233° |
| 2026-05-07 19:59 | 40.01820 | -8.27452 | 29277 ft | 350 kts | 229° |
| 2026-05-07 20:00 | 39.99897 | -8.29456 | 28877 ft | 359 kts | 211° |
| 2026-05-07 20:00 | 39.97588 | -8.30637 | 28589 ft | 359 kts | 195° |
| 2026-05-07 20:00 | 39.95108 | -8.31116 | 28309 ft | 361 kts | 191° |
| 2026-05-07 20:00 | 39.92598 | -8.31476 | 28010 ft | 364 kts | 190° |
| 2026-05-07 20:01 | 39.90083 | -8.31818 | 27711 ft | 363 kts | 190° |
| 2026-05-07 20:01 | 39.87573 | -8.32168 | 27403 ft | 361 kts | 190° |
| 2026-05-07 20:01 | 39.85121 | -8.32523 | 27123 ft | 359 kts | 190° |
| 2026-05-07 20:01 | 39.82647 | -8.32893 | 26836 ft | 357 kts | 191° |
| 2026-05-07 20:02 | 39.80187 | -8.33267 | 26549 ft | 355 kts | 191° |
| 2026-05-07 20:02 | 39.77741 | -8.33642 | 26271 ft | 353 kts | 191° |
| 2026-05-07 20:02 | 39.75304 | -8.34015 | 25987 ft | 352 kts | 191° |
| 2026-05-07 20:02 | 39.72871 | -8.34387 | 25700 ft | 351 kts | 191° |
| 2026-05-07 20:03 | 39.70479 | -8.34906 | 25404 ft | 345 kts | 201° |
| 2026-05-07 20:03 | 39.68400 | -8.36260 | 25163 ft | 336 kts | 216° |
| 2026-05-07 20:03 | 39.66688 | -8.38262 | 24884 ft | 330 kts | 230° |
| 2026-05-07 20:03 | 39.65284 | -8.40589 | 24636 ft | 326 kts | 232° |
| 2026-05-07 20:04 | 39.63940 | -8.42940 | 24366 ft | 323 kts | 232° |
| 2026-05-07 20:04 | 39.62602 | -8.45269 | 24112 ft | 320 kts | 232° |
| 2026-05-07 20:04 | 39.61259 | -8.47566 | 23866 ft | 321 kts | 232° |
| 2026-05-07 20:04 | 39.59893 | -8.49883 | 23602 ft | 325 kts | 231° |
| 2026-05-07 20:05 | 39.58471 | -8.52173 | 23293 ft | 326 kts | 224° |
| 2026-05-07 20:05 | 39.56671 | -8.53940 | 23016 ft | 324 kts | 212° |
| 2026-05-07 20:05 | 39.54745 | -8.55447 | 22740 ft | 323 kts | 211° |
| 2026-05-07 20:05 | 39.52818 | -8.56924 | 22471 ft | 321 kts | 211° |
| 2026-05-07 20:06 | 39.50922 | -8.58379 | 22215 ft | 320 kts | 211° |
| 2026-05-07 20:06 | 39.49015 | -8.59853 | 21954 ft | 319 kts | 211° |
| 2026-05-07 20:06 | 39.47111 | -8.61334 | 21688 ft | 318 kts | 211° |
| 2026-05-07 20:06 | 39.45218 | -8.62811 | 21437 ft | 317 kts | 211° |
| 2026-05-07 20:07 | 39.43329 | -8.64287 | 21184 ft | 317 kts | 211° |
| 2026-05-07 20:07 | 39.41445 | -8.65761 | 20939 ft | 316 kts | 211° |
| 2026-05-07 20:07 | 39.39563 | -8.67234 | 20689 ft | 316 kts | 211° |
| 2026-05-07 20:07 | 39.37683 | -8.68706 | 20436 ft | 316 kts | 210° |
| 2026-05-07 20:08 | 39.35804 | -8.70175 | 20181 ft | 315 kts | 210° |
| 2026-05-07 20:08 | 39.33953 | -8.71620 | 19930 ft | 315 kts | 210° |
| 2026-05-07 20:08 | 39.32082 | -8.73080 | 19703 ft | 314 kts | 210° |
| 2026-05-07 20:08 | 39.30293 | -8.74687 | 19433 ft | 313 kts | 218° |
| 2026-05-07 20:09 | 39.28650 | -8.76526 | 19185 ft | 312 kts | 220° |
| 2026-05-07 20:09 | 39.27052 | -8.78413 | 18930 ft | 311 kts | 220° |
| 2026-05-07 20:09 | 39.25466 | -8.80295 | 18683 ft | 309 kts | 220° |
| 2026-05-07 20:10 | 39.22300 | -8.83997 | 18174 ft | 306 kts | 220° |
| 2026-05-07 20:10 | 39.20720 | -8.85822 | 17890 ft | 304 kts | 220° |
| 2026-05-07 20:10 | 39.19147 | -8.87630 | 17636 ft | 302 kts | 219° |
| 2026-05-07 20:10 | 39.17581 | -8.89424 | 17378 ft | 300 kts | 219° |
| 2026-05-07 20:11 | 39.16043 | -8.91182 | 17133 ft | 299 kts | 219° |
| 2026-05-07 20:11 | 39.14492 | -8.92951 | 16891 ft | 297 kts | 219° |
| 2026-05-07 20:11 | 39.12948 | -8.94711 | 16655 ft | 296 kts | 219° |
| 2026-05-07 20:11 | 39.11408 | -8.96464 | 16417 ft | 295 kts | 219° |
| 2026-05-07 20:12 | 39.09874 | -8.98210 | 16181 ft | 294 kts | 219° |
| 2026-05-07 20:12 | 39.08343 | -8.99952 | 15942 ft | 294 kts | 219° |
| 2026-05-07 20:12 | 39.06813 | -9.01691 | 15708 ft | 293 kts | 219° |
| 2026-05-07 20:12 | 39.05798 | -9.02844 | 15550 ft | 293 kts | 219° |
| 2026-05-07 20:13 | 39.03775 | -9.05141 | 15245 ft | 292 kts | 219° |
| 2026-05-07 20:13 | 39.02267 | -9.06853 | 15000 ft | 287 kts | 219° |
| 2026-05-07 20:13 | 39.00778 | -9.08540 | 14779 ft | 283 kts | 218° |
| 2026-05-07 20:13 | 38.99165 | -9.09907 | 14541 ft | 275 kts | 202° |
| 2026-05-07 20:14 | 38.97434 | -9.10833 | 14330 ft | 264 kts | 200° |
| 2026-05-07 20:14 | 38.95758 | -9.11705 | 14131 ft | 258 kts | 200° |
| 2026-05-07 20:14 | 38.94661 | -9.12277 | 13990 ft | 257 kts | 200° |
| 2026-05-07 20:14 | 38.93013 | -9.13141 | 13788 ft | 255 kts | 200° |
| 2026-05-07 20:15 | 38.91372 | -9.14006 | 13561 ft | 254 kts | 200° |
| 2026-05-07 20:15 | 38.89739 | -9.14871 | 13328 ft | 253 kts | 200° |
| 2026-05-07 20:15 | 38.87597 | -9.16010 | 13068 ft | 251 kts | 200° |
| 2026-05-07 20:15 | 38.85985 | -9.16869 | 12848 ft | 250 kts | 201° |
| 2026-05-07 20:16 | 38.84901 | -9.17446 | 12718 ft | 250 kts | 201° |
| 2026-05-07 20:16 | 38.83293 | -9.18303 | 12510 ft | 250 kts | 201° |
| 2026-05-07 20:16 | 38.81691 | -9.19158 | 12304 ft | 249 kts | 201° |
| 2026-05-07 20:16 | 38.80115 | -9.19999 | 12112 ft | 249 kts | 201° |
| 2026-05-07 20:17 | 38.78515 | -9.20852 | 11915 ft | 249 kts | 201° |
| 2026-05-07 20:17 | 38.76911 | -9.21706 | 11710 ft | 250 kts | 201° |
| 2026-05-07 20:17 | 38.75308 | -9.22560 | 11505 ft | 250 kts | 201° |
| 2026-05-07 20:17 | 38.73703 | -9.23414 | 11304 ft | 250 kts | 201° |
| 2026-05-07 20:18 | 38.72199 | -9.24533 | 11079 ft | 254 kts | 221° |
| 2026-05-07 20:18 | 38.71067 | -9.26267 | 11013 ft | 256 kts | 230° |
| 2026-05-07 20:18 | 38.70020 | -9.28061 | 10962 ft | 253 kts | 230° |
| 2026-05-07 20:18 | 38.68982 | -9.29837 | 10930 ft | 242 kts | 229° |
| 2026-05-07 20:19 | 38.68000 | -9.31522 | 10915 ft | 230 kts | 231° |
| 2026-05-07 20:19 | 38.67249 | -9.33295 | 10935 ft | 225 kts | 242° |
| 2026-05-07 20:19 | 38.66618 | -9.35120 | 10948 ft | 226 kts | 241° |
| 2026-05-07 20:19 | 38.65966 | -9.36987 | 10963 ft | 233 kts | 241° |
| 2026-05-07 20:20 | 38.65295 | -9.38893 | 10961 ft | 235 kts | 241° |
| 2026-05-07 20:20 | 38.64624 | -9.40792 | 10945 ft | 233 kts | 241° |
| 2026-05-07 20:20 | 38.63957 | -9.42669 | 10801 ft | 232 kts | 241° |
| 2026-05-07 20:20 | 38.63266 | -9.44597 | 10198 ft | 247 kts | 241° |
| 2026-05-07 20:21 | 38.62548 | -9.46596 | 9785 ft | 253 kts | 242° |
| 2026-05-07 20:21 | 38.61814 | -9.48641 | 9513 ft | 252 kts | 242° |
| 2026-05-07 20:21 | 38.61086 | -9.50668 | 9239 ft | 250 kts | 242° |
| 2026-05-07 20:21 | 38.60331 | -9.52662 | 8957 ft | 247 kts | 235° |
| 2026-05-07 20:22 | 38.59112 | -9.54111 | 8776 ft | 238 kts | 206° |
| 2026-05-07 20:22 | 38.57556 | -9.54715 | 8597 ft | 233 kts | 186° |
| 2026-05-07 20:22 | 38.55937 | -9.54589 | 8310 ft | 235 kts | 172° |
| 2026-05-07 20:22 | 38.54325 | -9.54182 | 8028 ft | 236 kts | 170° |
| 2026-05-07 20:23 | 38.52712 | -9.53750 | 7984 ft | 238 kts | 171° |
| 2026-05-07 20:23 | 38.51101 | -9.53251 | 7917 ft | 240 kts | 159° |
| 2026-05-07 20:23 | 38.49852 | -9.51883 | 7618 ft | 243 kts | 122° |
| 2026-05-07 20:23 | 38.49346 | -9.49846 | 7154 ft | 249 kts | 96° |
| 2026-05-07 20:24 | 38.49517 | -9.47620 | 6731 ft | 252 kts | 72° |
| 2026-05-07 20:24 | 38.50210 | -9.45605 | 6355 ft | 251 kts | 64° |
| 2026-05-07 20:24 | 38.51032 | -9.43619 | 6028 ft | 253 kts | 63° |
| 2026-05-07 20:24 | 38.51866 | -9.41647 | 5773 ft | 252 kts | 63° |
| 2026-05-07 20:25 | 38.52689 | -9.39685 | 5562 ft | 250 kts | 62° |
| 2026-05-07 20:25 | 38.53500 | -9.37735 | 5358 ft | 247 kts | 62° |
| 2026-05-07 20:25 | 38.54297 | -9.35805 | 5153 ft | 244 kts | 62° |
| 2026-05-07 20:25 | 38.55083 | -9.33888 | 4966 ft | 244 kts | 62° |
| 2026-05-07 20:26 | 38.55869 | -9.31965 | 4774 ft | 244 kts | 61° |
| 2026-05-07 20:26 | 38.56649 | -9.30052 | 4581 ft | 241 kts | 61° |
| 2026-05-07 20:26 | 38.57417 | -9.28162 | 4409 ft | 238 kts | 61° |
| 2026-05-07 20:26 | 38.58175 | -9.26297 | 4235 ft | 236 kts | 61° |
| 2026-05-07 20:27 | 38.58980 | -9.24518 | 4032 ft | 233 kts | 46° |
| 2026-05-07 20:27 | 38.60277 | -9.23404 | 3792 ft | 220 kts | 22° |
| 2026-05-07 20:27 | 38.61601 | -9.22547 | 3571 ft | 207 kts | 24° |
| 2026-05-07 20:27 | 38.62875 | -9.21791 | 3321 ft | 196 kts | 21° |
| 2026-05-07 20:28 | 38.64089 | -9.21126 | 3050 ft | 183 kts | 19° |
| 2026-05-07 20:28 | 38.65210 | -9.20524 | 2849 ft | 164 kts | 19° |
| 2026-05-07 20:28 | 38.66216 | -9.19984 | 2634 ft | 147 kts | 18° |
| 2026-05-07 20:28 | 38.67131 | -9.19494 | 2413 ft | 139 kts | 19° |
| 2026-05-07 20:29 | 38.68032 | -9.19013 | 2226 ft | 141 kts | 18° |
| 2026-05-07 20:29 | 38.68931 | -9.18531 | 2020 ft | 140 kts | 17° |
| 2026-05-07 20:29 | 38.69829 | -9.18049 | 1836 ft | 139 kts | 18° |
| 2026-05-07 20:29 | 38.70707 | -9.17578 | 1646 ft | 138 kts | 18° |
| 2026-05-07 20:30 | 38.71584 | -9.17107 | 1462 ft | 137 kts | 18° |
| 2026-05-07 20:30 | 38.72470 | -9.16633 | 1270 ft | 139 kts | 18° |
| 2026-05-07 20:30 | 38.73358 | -9.16156 | 1096 ft | 139 kts | 18° |
| 2026-05-07 20:30 | 38.74254 | -9.15673 | 843 ft | 142 kts | 18° |
| 2026-05-07 20:31 | 38.75165 | -9.15162 | 633 ft | 140 kts | 21° |
| 2026-05-07 20:31 | 38.76069 | -9.14678 | 525 ft | 143 kts | 17° |
| 2026-05-07 20:31 | 38.76984 | -9.14193 | 356 ft | 139 kts | 18° |
| 2026-05-07 20:31 | 38.77784 | -9.13789 | 364 ft | 104 kts | 24° |
| 2026-05-07 20:32 | 38.78275 | -9.13519 | 367 ft | 46 kts | 25° |
| 2026-05-07 20:32 | 38.78509 | -9.13387 | 366 ft | 22 kts | 36° |
| 2026-05-07 20:32 | 38.78536 | -9.13300 | 359 ft | 0 kts | 98° |
| 2026-05-07 20:33 | 38.78536 | -9.13296 | 359 ft | 1 kts | 98° |
| 2026-05-07 20:33 | 38.78531 | -9.13275 | 360 ft | 3 kts | 115° |
| 2026-05-07 20:33 | 38.78510 | -9.13248 | 363 ft | 5 kts | 141° |
| 2026-05-07 20:34 | 38.78466 | -9.13230 | 360 ft | 8 kts | 172° |
| 2026-05-07 20:34 | 38.78395 | -9.13227 | 360 ft | 12 kts | 194° |
| 2026-05-07 20:34 | 38.78307 | -9.13272 | 362 ft | 15 kts | 202° |
| 2026-05-07 20:34 | 38.78202 | -9.13328 | 359 ft | 18 kts | 203° |
| 2026-05-07 20:35 | 38.78083 | -9.13393 | 359 ft | 20 kts | 201° |
| 2026-05-07 20:35 | 38.77936 | -9.13393 | 356 ft | 24 kts | 166° |
| 2026-05-07 20:35 | 38.77753 | -9.13339 | 339 ft | 30 kts | 171° |
| 2026-05-07 20:35 | 38.77534 | -9.13308 | 335 ft | 32 kts | 171° |
| 2026-05-07 20:36 | 38.77318 | -9.13256 | 337 ft | 32 kts | 169° |
| 2026-05-07 20:36 | 38.77137 | -9.13209 | 337 ft | 15 kts | 165° |
| 2026-05-07 20:36 | 38.77112 | -9.13131 | 336 ft | 3 kts | 78° |
| 2026-05-07 20:36 | 38.77114 | -9.13118 | 335 ft | 0 kts | 76° |
| 2026-05-07 20:37 | 38.77115 | -9.13118 | 335 ft | 0 kts | 76° |
| 2026-05-07 20:37 | 38.77115 | -9.13113 | 335 ft | 0 kts | 76° |